مكة, السعودية

12:13 AM AST on هاêè 26, 2015 (GMT +0300)
King Abdulaziz International | | Change Station
CLOSE
Current Station
Airport
Location: Jeddah,
Elevation: 49 ft
Nearby Weather Stations

Elev 49 ft 21.70 °N, 39.18 °E | Updated 13 minutes ago

Clear
صافية
86 °F
Feels Like 89 °F
N
6
ريح متغير ريح from غرب

هذا اليوم
High -- | Low -- °F
--% Chance of Precip.
Yesterday
High -- | Low -- °F
Precip. -- في
5:39 AM 6:56 PM
الربع الاول, 51% visible
الضغط 29.74 في
وضوح الرؤية -9999.0 أميال
سحابات
مؤشر الحرارة 89 °F
نقطة الندى 68 °F
الرطوبة 55%
Rainfall 0.00 في
عمق الثلج Not available.
الأشعة فوق البنفسجية Not available.
Pollen Not available.
جودة الهواء Not available.
Flu Activity Not available.
METAR OEJN 252100Z 27005KT CAVOK 30/20 Q1007 NOSIG

More Conditions Fewer Conditions

الضغط 29.74 في
وضوح الرؤية -9999.0 أميال
سحابات
مؤشر الحرارة 89 °F
نقطة الندى 68 °F
الرطوبة 55%
Rainfall 0.00 في
عمق الثلج Not available.
الأشعة فوق البنفسجية Not available.
Pollen Not available.
جودة الهواء Not available.
Flu Activity Not available.
METAR OEJN 252100Z 27005KT CAVOK 30/20 Q1007 NOSIG

More Conditions Fewer Conditions

10-Day Weather Forecast

Almanac

علم الفلك

May. 26, 2015 Rise Set
Actual Time
Civil Twilight
Nautical Twilight
Astronomical Twilight
قمر
Length Of Visible Light
طول الیوم
Tomorrow will be .
, % of the Moon is Illuminated

Today's Extremes

Country Highs Country Lows

Community

WunderPhotos

Upload Photos

1,824,135 photos uploaded!

WunderBlogs® & News

Nearby

جودة الهواء

  جودة الهواء AQ Index Pollutant
Not available.

عمق الثلج

Station Depth Elevation

Earthquake Activity

City Distance Mag. Time & Date
Minimum magnitude displayed is 2.5.

Coastal Water Temperatures

مكان درجات الحرارة

Stations

Nearby Weather Stations

Station Location الحرارة رياح باردة نقطة الندى الرطوبة ريح Precip. Elev تحديث Type